sensor_id;sensor_type;location;lat;lon;timestamp;P1;durP1;ratioP1;P2;durP2;ratioP2
11964;SDS011;6042;41.326;19.826;2023-11-21T00:00:07;5.17;;;2.40;;
11964;SDS011;6042;41.326;19.826;2023-11-21T00:02:39;6.37;;;3.13;;
11964;SDS011;6042;41.326;19.826;2023-11-21T00:05:10;5.63;;;3.10;;
11964;SDS011;6042;41.326;19.826;2023-11-21T00:07:40;5.13;;;2.43;;
11964;SDS011;6042;41.326;19.826;2023-11-21T00:10:10;4.33;;;2.63;;
11964;SDS011;6042;41.326;19.826;2023-11-21T00:12:41;6.13;;;2.70;;
11964;SDS011;6042;41.326;19.826;2023-11-21T00:15:10;5.90;;;2.90;;
11964;SDS011;6042;41.326;19.826;2023-11-21T00:17:39;7.73;;;2.90;;
11964;SDS011;6042;41.326;19.826;2023-11-21T00:20:08;18.73;;;4.40;;
11964;SDS011;6042;41.326;19.826;2023-11-21T00:22:40;4.23;;;2.57;;
11964;SDS011;6042;41.326;19.826;2023-11-21T00:25:10;4.93;;;2.57;;
11964;SDS011;6042;41.326;19.826;2023-11-21T00:27:39;6.87;;;2.63;;
11964;SDS011;6042;41.326;19.826;2023-11-21T00:30:08;7.23;;;3.10;;
11964;SDS011;6042;41.326;19.826;2023-11-21T00:32:38;3.80;;;2.70;;
11964;SDS011;6042;41.326;19.826;2023-11-21T00:35:06;6.23;;;2.83;;
11964;SDS011;6042;41.326;19.826;2023-11-21T00:37:36;2.97;;;2.50;;
11964;SDS011;6042;41.326;19.826;2023-11-21T00:40:06;4.97;;;2.57;;
11964;SDS011;6042;41.326;19.826;2023-11-21T00:42:36;3.97;;;2.20;;
11964;SDS011;6042;41.326;19.826;2023-11-21T00:45:05;2.27;;;2.07;;
11964;SDS011;6042;41.326;19.826;2023-11-21T00:47:35;3.90;;;2.10;;
11964;SDS011;6042;41.326;19.826;2023-11-21T00:50:04;6.20;;;2.43;;
11964;SDS011;6042;41.326;19.826;2023-11-21T00:52:34;3.30;;;2.03;;
11964;SDS011;6042;41.326;19.826;2023-11-21T00:55:05;3.73;;;2.43;;
11964;SDS011;6042;41.326;19.826;2023-11-21T00:57:34;2.20;;;1.97;;
11964;SDS011;6042;41.326;19.826;2023-11-21T01:00:03;2.63;;;2.20;;
11964;SDS011;6042;41.326;19.826;2023-11-21T01:02:35;2.53;;;2.00;;
11964;SDS011;6042;41.326;19.826;2023-11-21T01:05:03;4.87;;;2.27;;
11964;SDS011;6042;41.326;19.826;2023-11-21T01:07:35;3.07;;;2.10;;
11964;SDS011;6042;41.326;19.826;2023-11-21T01:10:05;5.13;;;2.37;;
11964;SDS011;6042;41.326;19.826;2023-11-21T01:12:35;1.97;;;1.83;;
11964;SDS011;6042;41.326;19.826;2023-11-21T01:15:05;4.80;;;2.07;;
11964;SDS011;6042;41.326;19.826;2023-11-21T01:17:35;3.90;;;1.83;;
11964;SDS011;6042;41.326;19.826;2023-11-21T01:20:05;3.07;;;1.80;;
11964;SDS011;6042;41.326;19.826;2023-11-21T01:22:39;3.97;;;1.80;;
11964;SDS011;6042;41.326;19.826;2023-11-21T01:25:10;1.83;;;1.73;;
11964;SDS011;6042;41.326;19.826;2023-11-21T01:27:41;1.73;;;1.63;;
11964;SDS011;6042;41.326;19.826;2023-11-21T01:30:10;2.60;;;1.60;;
11964;SDS011;6042;41.326;19.826;2023-11-21T01:32:39;1.63;;;1.20;;
11964;SDS011;6042;41.326;19.826;2023-11-21T01:35:08;2.40;;;1.53;;
11964;SDS011;6042;41.326;19.826;2023-11-21T01:37:37;4.20;;;1.80;;
11964;SDS011;6042;41.326;19.826;2023-11-21T01:40:07;2.10;;;1.57;;
11964;SDS011;6042;41.326;19.826;2023-11-21T01:42:42;1.60;;;1.50;;
11964;SDS011;6042;41.326;19.826;2023-11-21T01:45:11;1.80;;;1.50;;
11964;SDS011;6042;41.326;19.826;2023-11-21T01:47:41;3.63;;;1.60;;
11964;SDS011;6042;41.326;19.826;2023-11-21T01:50:12;1.43;;;1.33;;
11964;SDS011;6042;41.326;19.826;2023-11-21T01:52:43;3.10;;;1.10;;
11964;SDS011;6042;41.326;19.826;2023-11-21T01:55:14;2.00;;;1.33;;
11964;SDS011;6042;41.326;19.826;2023-11-21T01:57:56;2.23;;;1.30;;
11964;SDS011;6042;41.326;19.826;2023-11-21T02:00:24;1.33;;;1.23;;
11964;SDS011;6042;41.326;19.826;2023-11-21T02:02:55;4.17;;;1.30;;
11964;SDS011;6042;41.326;19.826;2023-11-21T02:05:24;1.33;;;1.23;;
11964;SDS011;6042;41.326;19.826;2023-11-21T02:07:53;3.53;;;1.23;;
11964;SDS011;6042;41.326;19.826;2023-11-21T02:10:24;2.30;;;1.40;;
11964;SDS011;6042;41.326;19.826;2023-11-21T02:12:52;2.20;;;1.30;;
11964;SDS011;6042;41.326;19.826;2023-11-21T02:15:24;1.40;;;1.27;;
11964;SDS011;6042;41.326;19.826;2023-11-21T02:17:56;2.20;;;1.53;;
11964;SDS011;6042;41.326;19.826;2023-11-21T02:20:26;2.37;;;1.30;;
11964;SDS011;6042;41.326;19.826;2023-11-21T02:22:58;1.23;;;1.13;;
11964;SDS011;6042;41.326;19.826;2023-11-21T02:25:28;2.83;;;1.50;;
11964;SDS011;6042;41.326;19.826;2023-11-21T02:27:59;2.47;;;1.33;;
11964;SDS011;6042;41.326;19.826;2023-11-21T02:30:29;2.43;;;1.50;;
11964;SDS011;6042;41.326;19.826;2023-11-21T02:32:59;2.63;;;1.20;;
11964;SDS011;6042;41.326;19.826;2023-11-21T02:35:30;2.87;;;1.43;;
11964;SDS011;6042;41.326;19.826;2023-11-21T02:38:00;1.90;;;1.30;;
11964;SDS011;6042;41.326;19.826;2023-11-21T02:40:29;1.10;;;1.10;;
11964;SDS011;6042;41.326;19.826;2023-11-21T02:42:58;1.73;;;1.03;;
11964;SDS011;6042;41.326;19.826;2023-11-21T02:45:26;4.50;;;1.13;;
11964;SDS011;6042;41.326;19.826;2023-11-21T02:47:55;2.60;;;1.13;;
11964;SDS011;6042;41.326;19.826;2023-11-21T02:50:27;1.67;;;1.30;;
11964;SDS011;6042;41.326;19.826;2023-11-21T02:52:56;6.90;;;1.70;;
11964;SDS011;6042;41.326;19.826;2023-11-21T02:55:28;1.30;;;1.20;;
11964;SDS011;6042;41.326;19.826;2023-11-21T02:57:57;2.40;;;1.10;;
11964;SDS011;6042;41.326;19.826;2023-11-21T03:00:26;3.40;;;1.37;;
11964;SDS011;6042;41.326;19.826;2023-11-21T03:02:56;1.17;;;0.97;;
11964;SDS011;6042;41.326;19.826;2023-11-21T03:05:25;2.87;;;1.10;;
11964;SDS011;6042;41.326;19.826;2023-11-21T03:07:56;1.50;;;1.07;;
11964;SDS011;6042;41.326;19.826;2023-11-21T03:10:25;3.50;;;1.07;;
11964;SDS011;6042;41.326;19.826;2023-11-21T03:12:56;2.10;;;1.20;;
11964;SDS011;6042;41.326;19.826;2023-11-21T03:15:25;2.73;;;1.00;;
11964;SDS011;6042;41.326;19.826;2023-11-21T03:17:53;1.40;;;1.10;;
11964;SDS011;6042;41.326;19.826;2023-11-21T03:20:23;1.10;;;1.00;;
11964;SDS011;6042;41.326;19.826;2023-11-21T03:22:52;1.60;;;1.00;;
11964;SDS011;6042;41.326;19.826;2023-11-21T03:25:20;1.37;;;1.03;;
11964;SDS011;6042;41.326;19.826;2023-11-21T03:27:50;1.80;;;1.00;;
11964;SDS011;6042;41.326;19.826;2023-11-21T03:30:21;2.00;;;1.10;;
11964;SDS011;6042;41.326;19.826;2023-11-21T03:32:50;1.87;;;1.03;;
11964;SDS011;6042;41.326;19.826;2023-11-21T03:35:19;1.47;;;1.10;;
11964;SDS011;6042;41.326;19.826;2023-11-21T03:37:48;1.17;;;0.90;;
11964;SDS011;6042;41.326;19.826;2023-11-21T03:40:16;1.23;;;1.00;;
11964;SDS011;6042;41.326;19.826;2023-11-21T03:42:45;1.20;;;1.07;;
11964;SDS011;6042;41.326;19.826;2023-11-21T03:45:13;1.40;;;1.00;;
11964;SDS011;6042;41.326;19.826;2023-11-21T03:47:43;2.77;;;0.93;;
11964;SDS011;6042;41.326;19.826;2023-11-21T03:50:12;0.70;;;0.70;;
11964;SDS011;6042;41.326;19.826;2023-11-21T03:52:42;1.10;;;0.73;;
11964;SDS011;6042;41.326;19.826;2023-11-21T03:55:11;3.13;;;1.50;;
11964;SDS011;6042;41.326;19.826;2023-11-21T03:57:42;1.23;;;1.10;;
11964;SDS011;6042;41.326;19.826;2023-11-21T04:00:10;2.93;;;1.67;;
11964;SDS011;6042;41.326;19.826;2023-11-21T04:02:39;1.27;;;1.00;;
11964;SDS011;6042;41.326;19.826;2023-11-21T04:05:09;1.33;;;0.90;;
11964;SDS011;6042;41.326;19.826;2023-11-21T04:07:38;1.83;;;0.90;;
11964;SDS011;6042;41.326;19.826;2023-11-21T04:10:07;0.80;;;0.80;;
11964;SDS011;6042;41.326;19.826;2023-11-21T04:12:39;1.53;;;0.90;;
11964;SDS011;6042;41.326;19.826;2023-11-21T04:15:08;0.97;;;0.90;;
11964;SDS011;6042;41.326;19.826;2023-11-21T04:17:38;1.27;;;0.87;;
11964;SDS011;6042;41.326;19.826;2023-11-21T04:20:07;1.30;;;1.00;;
11964;SDS011;6042;41.326;19.826;2023-11-21T04:22:39;3.50;;;0.93;;
11964;SDS011;6042;41.326;19.826;2023-11-21T04:25:12;3.60;;;0.97;;
11964;SDS011;6042;41.326;19.826;2023-11-21T04:27:43;2.83;;;1.10;;
11964;SDS011;6042;41.326;19.826;2023-11-21T04:30:12;2.63;;;1.10;;
11964;SDS011;6042;41.326;19.826;2023-11-21T04:32:41;0.70;;;0.70;;
11964;SDS011;6042;41.326;19.826;2023-11-21T04:35:10;1.83;;;1.00;;
11964;SDS011;6042;41.326;19.826;2023-11-21T04:37:40;2.03;;;0.80;;
11964;SDS011;6042;41.326;19.826;2023-11-21T04:40:09;1.90;;;0.80;;
11964;SDS011;6042;41.326;19.826;2023-11-21T04:42:38;0.90;;;0.90;;
11964;SDS011;6042;41.326;19.826;2023-11-21T04:45:07;2.27;;;1.00;;
11964;SDS011;6042;41.326;19.826;2023-11-21T04:47:39;1.37;;;0.87;;
11964;SDS011;6042;41.326;19.826;2023-11-21T04:50:08;1.20;;;1.00;;
11964;SDS011;6042;41.326;19.826;2023-11-21T04:52:37;0.77;;;0.77;;
11964;SDS011;6042;41.326;19.826;2023-11-21T04:55:07;1.43;;;0.70;;
11964;SDS011;6042;41.326;19.826;2023-11-21T04:57:37;0.97;;;0.87;;
11964;SDS011;6042;41.326;19.826;2023-11-21T05:00:09;1.33;;;0.80;;
11964;SDS011;6042;41.326;19.826;2023-11-21T05:02:39;2.20;;;1.03;;
11964;SDS011;6042;41.326;19.826;2023-11-21T05:05:08;0.93;;;0.93;;
11964;SDS011;6042;41.326;19.826;2023-11-21T05:07:39;0.87;;;0.70;;
11964;SDS011;6042;41.326;19.826;2023-11-21T05:10:09;1.53;;;0.93;;
11964;SDS011;6042;41.326;19.826;2023-11-21T05:12:42;1.17;;;0.90;;
11964;SDS011;6042;41.326;19.826;2023-11-21T05:15:12;1.00;;;1.00;;
11964;SDS011;6042;41.326;19.826;2023-11-21T05:17:42;1.07;;;0.97;;
11964;SDS011;6042;41.326;19.826;2023-11-21T05:20:13;3.50;;;0.90;;
11964;SDS011;6042;41.326;19.826;2023-11-21T05:22:45;1.60;;;1.07;;
11964;SDS011;6042;41.326;19.826;2023-11-21T05:25:16;1.80;;;0.77;;
11964;SDS011;6042;41.326;19.826;2023-11-21T05:27:45;2.10;;;0.97;;
11964;SDS011;6042;41.326;19.826;2023-11-21T05:30:14;5.47;;;1.20;;
11964;SDS011;6042;41.326;19.826;2023-11-21T05:32:43;2.73;;;1.17;;
11964;SDS011;6042;41.326;19.826;2023-11-21T05:35:13;3.80;;;1.30;;
11964;SDS011;6042;41.326;19.826;2023-11-21T05:37:48;3.67;;;1.27;;
11964;SDS011;6042;41.326;19.826;2023-11-21T05:40:21;2.50;;;1.30;;
11964;SDS011;6042;41.326;19.826;2023-11-21T05:42:51;3.43;;;1.43;;
11964;SDS011;6042;41.326;19.826;2023-11-21T05:45:19;3.10;;;1.43;;
11964;SDS011;6042;41.326;19.826;2023-11-21T05:47:48;3.20;;;1.10;;
11964;SDS011;6042;41.326;19.826;2023-11-21T05:50:17;6.40;;;1.40;;
11964;SDS011;6042;41.326;19.826;2023-11-21T05:52:45;3.97;;;1.50;;
11964;SDS011;6042;41.326;19.826;2023-11-21T05:55:15;6.87;;;1.43;;
11964;SDS011;6042;41.326;19.826;2023-11-21T05:57:45;1.83;;;1.30;;
11964;SDS011;6042;41.326;19.826;2023-11-21T06:00:14;1.40;;;1.10;;
11964;SDS011;6042;41.326;19.826;2023-11-21T06:02:48;2.30;;;1.33;;
11964;SDS011;6042;41.326;19.826;2023-11-21T06:05:20;1.83;;;1.50;;
11964;SDS011;6042;41.326;19.826;2023-11-21T06:07:51;2.80;;;1.80;;
11964;SDS011;6042;41.326;19.826;2023-11-21T06:10:21;8.30;;;2.67;;
11964;SDS011;6042;41.326;19.826;2023-11-21T06:12:52;6.40;;;1.80;;
11964;SDS011;6042;41.326;19.826;2023-11-21T06:15:21;6.73;;;2.00;;
11964;SDS011;6042;41.326;19.826;2023-11-21T06:17:50;2.67;;;1.87;;
11964;SDS011;6042;41.326;19.826;2023-11-21T06:20:20;3.47;;;1.70;;
11964;SDS011;6042;41.326;19.826;2023-11-21T06:22:50;3.27;;;1.60;;
11964;SDS011;6042;41.326;19.826;2023-11-21T06:25:19;8.17;;;2.00;;
11964;SDS011;6042;41.326;19.826;2023-11-21T06:27:48;7.93;;;1.77;;
11964;SDS011;6042;41.326;19.826;2023-11-21T06:30:19;5.33;;;2.20;;
11964;SDS011;6042;41.326;19.826;2023-11-21T06:32:48;14.20;;;3.00;;
11964;SDS011;6042;41.326;19.826;2023-11-21T06:35:17;7.73;;;2.50;;
11964;SDS011;6042;41.326;19.826;2023-11-21T06:37:46;8.17;;;2.53;;
11964;SDS011;6042;41.326;19.826;2023-11-21T06:40:16;6.33;;;2.87;;
11964;SDS011;6042;41.326;19.826;2023-11-21T06:42:47;3.77;;;2.90;;
11964;SDS011;6042;41.326;19.826;2023-11-21T06:45:17;5.37;;;3.03;;
11964;SDS011;6042;41.326;19.826;2023-11-21T06:47:48;10.40;;;3.47;;
11964;SDS011;6042;41.326;19.826;2023-11-21T06:50:17;3.07;;;1.67;;
11964;SDS011;6042;41.326;19.826;2023-11-21T06:52:45;9.83;;;3.10;;
11964;SDS011;6042;41.326;19.826;2023-11-21T06:55:15;5.57;;;2.57;;
11964;SDS011;6042;41.326;19.826;2023-11-21T06:57:44;6.07;;;2.03;;
11964;SDS011;6042;41.326;19.826;2023-11-21T07:00:14;11.53;;;3.23;;
11964;SDS011;6042;41.326;19.826;2023-11-21T07:02:45;3.70;;;2.30;;
11964;SDS011;6042;41.326;19.826;2023-11-21T07:05:15;4.93;;;2.50;;
11964;SDS011;6042;41.326;19.826;2023-11-21T07:07:48;3.50;;;2.27;;
11964;SDS011;6042;41.326;19.826;2023-11-21T07:10:17;7.43;;;2.30;;
11964;SDS011;6042;41.326;19.826;2023-11-21T07:12:45;8.87;;;2.47;;
11964;SDS011;6042;41.326;19.826;2023-11-21T07:15:14;5.67;;;2.87;;
11964;SDS011;6042;41.326;19.826;2023-11-21T07:17:43;7.40;;;2.90;;
11964;SDS011;6042;41.326;19.826;2023-11-21T07:20:11;7.33;;;3.30;;
11964;SDS011;6042;41.326;19.826;2023-11-21T07:22:41;10.33;;;3.07;;
11964;SDS011;6042;41.326;19.826;2023-11-21T07:25:10;8.50;;;2.70;;
11964;SDS011;6042;41.326;19.826;2023-11-21T07:27:38;8.67;;;2.60;;
11964;SDS011;6042;41.326;19.826;2023-11-21T07:30:07;6.93;;;3.20;;
11964;SDS011;6042;41.326;19.826;2023-11-21T07:32:37;5.73;;;3.53;;
11964;SDS011;6042;41.326;19.826;2023-11-21T07:35:07;8.13;;;3.13;;
11964;SDS011;6042;41.326;19.826;2023-11-21T07:37:36;8.63;;;2.90;;
11964;SDS011;6042;41.326;19.826;2023-11-21T07:40:07;5.40;;;2.80;;
11964;SDS011;6042;41.326;19.826;2023-11-21T07:42:38;10.87;;;4.43;;
11964;SDS011;6042;41.326;19.826;2023-11-21T07:45:07;7.53;;;3.93;;
11964;SDS011;6042;41.326;19.826;2023-11-21T07:47:36;6.90;;;3.23;;
11964;SDS011;6042;41.326;19.826;2023-11-21T07:50:06;12.43;;;3.17;;
11964;SDS011;6042;41.326;19.826;2023-11-21T07:52:35;10.67;;;3.80;;
11964;SDS011;6042;41.326;19.826;2023-11-21T07:55:04;9.37;;;4.03;;
11964;SDS011;6042;41.326;19.826;2023-11-21T07:57:35;7.20;;;4.20;;
11964;SDS011;6042;41.326;19.826;2023-11-21T08:00:04;14.13;;;4.20;;
11964;SDS011;6042;41.326;19.826;2023-11-21T08:02:39;10.70;;;4.30;;
11964;SDS011;6042;41.326;19.826;2023-11-21T08:05:09;5.63;;;2.93;;
11964;SDS011;6042;41.326;19.826;2023-11-21T08:07:51;5.03;;;3.57;;
11964;SDS011;6042;41.326;19.826;2023-11-21T08:10:21;6.97;;;3.90;;
11964;SDS011;6042;41.326;19.826;2023-11-21T08:12:49;8.33;;;3.67;;
11964;SDS011;6042;41.326;19.826;2023-11-21T08:15:18;6.43;;;2.93;;
11964;SDS011;6042;41.326;19.826;2023-11-21T08:17:46;6.93;;;2.30;;
11964;SDS011;6042;41.326;19.826;2023-11-21T08:20:15;3.90;;;2.50;;
11964;SDS011;6042;41.326;19.826;2023-11-21T08:22:45;8.10;;;2.97;;
11964;SDS011;6042;41.326;19.826;2023-11-21T08:25:15;6.97;;;3.30;;
11964;SDS011;6042;41.326;19.826;2023-11-21T08:27:48;7.43;;;3.53;;
11964;SDS011;6042;41.326;19.826;2023-11-21T08:30:17;9.17;;;3.73;;
11964;SDS011;6042;41.326;19.826;2023-11-21T08:32:46;9.70;;;4.83;;
11964;SDS011;6042;41.326;19.826;2023-11-21T08:35:14;8.77;;;4.87;;
11964;SDS011;6042;41.326;19.826;2023-11-21T08:37:44;13.77;;;6.27;;
11964;SDS011;6042;41.326;19.826;2023-11-21T08:40:13;13.53;;;7.33;;
11964;SDS011;6042;41.326;19.826;2023-11-21T08:42:44;13.67;;;6.77;;
11964;SDS011;6042;41.326;19.826;2023-11-21T08:45:14;15.50;;;7.43;;
11964;SDS011;6042;41.326;19.826;2023-11-21T08:47:44;11.80;;;6.00;;
11964;SDS011;6042;41.326;19.826;2023-11-21T08:50:13;11.03;;;5.37;;
11964;SDS011;6042;41.326;19.826;2023-11-21T08:52:42;10.07;;;4.17;;
11964;SDS011;6042;41.326;19.826;2023-11-21T08:55:12;5.20;;;3.57;;
11964;SDS011;6042;41.326;19.826;2023-11-21T08:57:43;7.43;;;3.33;;
11964;SDS011;6042;41.326;19.826;2023-11-21T09:00:15;9.07;;;3.60;;
11964;SDS011;6042;41.326;19.826;2023-11-21T09:02:44;8.27;;;4.30;;
11964;SDS011;6042;41.326;19.826;2023-11-21T09:05:13;11.37;;;3.90;;
11964;SDS011;6042;41.326;19.826;2023-11-21T09:07:42;11.47;;;5.43;;
11964;SDS011;6042;41.326;19.826;2023-11-21T09:10:12;12.10;;;5.40;;
11964;SDS011;6042;41.326;19.826;2023-11-21T09:12:41;6.73;;;4.13;;
11964;SDS011;6042;41.326;19.826;2023-11-21T09:15:10;12.73;;;4.87;;
11964;SDS011;6042;41.326;19.826;2023-11-21T09:17:41;11.50;;;4.20;;
11964;SDS011;6042;41.326;19.826;2023-11-21T09:20:11;14.30;;;4.37;;
11964;SDS011;6042;41.326;19.826;2023-11-21T09:22:41;12.97;;;4.70;;
11964;SDS011;6042;41.326;19.826;2023-11-21T09:25:12;7.30;;;3.80;;
11964;SDS011;6042;41.326;19.826;2023-11-21T09:27:41;8.20;;;3.70;;
11964;SDS011;6042;41.326;19.826;2023-11-21T09:30:10;11.97;;;5.07;;
11964;SDS011;6042;41.326;19.826;2023-11-21T09:32:42;10.73;;;4.40;;
11964;SDS011;6042;41.326;19.826;2023-11-21T09:35:12;8.97;;;4.60;;
11964;SDS011;6042;41.326;19.826;2023-11-21T09:37:42;11.03;;;4.40;;
11964;SDS011;6042;41.326;19.826;2023-11-21T09:40:16;14.07;;;6.87;;
11964;SDS011;6042;41.326;19.826;2023-11-21T09:42:51;9.87;;;4.33;;
11964;SDS011;6042;41.326;19.826;2023-11-21T09:45:26;8.87;;;4.27;;
11964;SDS011;6042;41.326;19.826;2023-11-21T09:47:57;12.00;;;4.73;;
11964;SDS011;6042;41.326;19.826;2023-11-21T09:50:28;12.83;;;5.17;;
11964;SDS011;6042;41.326;19.826;2023-11-21T09:52:58;8.20;;;4.07;;
11964;SDS011;6042;41.326;19.826;2023-11-21T09:55:42;8.93;;;4.13;;
11964;SDS011;6042;41.326;19.826;2023-11-21T09:58:11;8.97;;;3.70;;
11964;SDS011;6042;41.326;19.826;2023-11-21T10:00:41;7.63;;;3.90;;
11964;SDS011;6042;41.326;19.826;2023-11-21T10:03:12;7.30;;;3.87;;
11964;SDS011;6042;41.326;19.826;2023-11-21T10:05:41;9.07;;;3.90;;
11964;SDS011;6042;41.326;19.826;2023-11-21T10:08:12;7.60;;;3.27;;
11964;SDS011;6042;41.326;19.826;2023-11-21T10:10:42;13.87;;;4.33;;
11964;SDS011;6042;41.326;19.826;2023-11-21T10:13:13;8.10;;;3.50;;
11964;SDS011;6042;41.326;19.826;2023-11-21T10:15:44;8.53;;;4.87;;
11964;SDS011;6042;41.326;19.826;2023-11-21T10:18:17;15.57;;;6.77;;
11964;SDS011;6042;41.326;19.826;2023-11-21T10:20:46;11.37;;;6.33;;
11964;SDS011;6042;41.326;19.826;2023-11-21T10:23:20;9.40;;;6.70;;
11964;SDS011;6042;41.326;19.826;2023-11-21T10:25:50;18.50;;;9.17;;
11964;SDS011;6042;41.326;19.826;2023-11-21T10:28:21;16.47;;;9.17;;
11964;SDS011;6042;41.326;19.826;2023-11-21T10:30:49;15.47;;;7.57;;
11964;SDS011;6042;41.326;19.826;2023-11-21T10:33:24;10.00;;;6.50;;
11964;SDS011;6042;41.326;19.826;2023-11-21T10:35:55;8.63;;;5.60;;
11964;SDS011;6042;41.326;19.826;2023-11-21T10:38:24;6.53;;;4.10;;
11964;SDS011;6042;41.326;19.826;2023-11-21T10:40:54;8.70;;;3.77;;
11964;SDS011;6042;41.326;19.826;2023-11-21T10:43:25;10.73;;;4.10;;
11964;SDS011;6042;41.326;19.826;2023-11-21T10:45:56;10.70;;;4.40;;
11964;SDS011;6042;41.326;19.826;2023-11-21T10:48:27;9.87;;;4.20;;
11964;SDS011;6042;41.326;19.826;2023-11-21T10:50:56;9.00;;;3.80;;
11964;SDS011;6042;41.326;19.826;2023-11-21T10:53:28;8.57;;;3.93;;
11964;SDS011;6042;41.326;19.826;2023-11-21T10:56:01;11.80;;;4.00;;
11964;SDS011;6042;41.326;19.826;2023-11-21T10:58:33;7.40;;;3.93;;
11964;SDS011;6042;41.326;19.826;2023-11-21T11:01:03;7.70;;;4.27;;
11964;SDS011;6042;41.326;19.826;2023-11-21T11:03:39;12.07;;;3.87;;
11964;SDS011;6042;41.326;19.826;2023-11-21T11:06:09;10.10;;;3.97;;
11964;SDS011;6042;41.326;19.826;2023-11-21T11:08:38;13.57;;;4.20;;
11964;SDS011;6042;41.326;19.826;2023-11-21T11:11:07;10.27;;;4.03;;
11964;SDS011;6042;41.326;19.826;2023-11-21T11:13:39;9.83;;;4.90;;
11964;SDS011;6042;41.326;19.826;2023-11-21T11:16:12;8.80;;;5.03;;
11964;SDS011;6042;41.326;19.826;2023-11-21T11:18:46;13.17;;;4.80;;
11964;SDS011;6042;41.326;19.826;2023-11-21T11:21:21;13.53;;;5.33;;
11964;SDS011;6042;41.326;19.826;2023-11-21T11:24:00;10.27;;;4.73;;
11964;SDS011;6042;41.326;19.826;2023-11-21T11:26:42;13.00;;;5.37;;
11964;SDS011;6042;41.326;19.826;2023-11-21T11:29:20;7.33;;;4.43;;
11964;SDS011;6042;41.326;19.826;2023-11-21T11:31:56;9.67;;;4.80;;
11964;SDS011;6042;41.326;19.826;2023-11-21T11:34:39;8.10;;;4.87;;
11964;SDS011;6042;41.326;19.826;2023-11-21T11:37:14;11.43;;;4.50;;
11964;SDS011;6042;41.326;19.826;2023-11-21T11:39:43;12.73;;;5.03;;
11964;SDS011;6042;41.326;19.826;2023-11-21T11:42:13;7.97;;;4.97;;
11964;SDS011;6042;41.326;19.826;2023-11-21T11:44:46;11.43;;;4.33;;
11964;SDS011;6042;41.326;19.826;2023-11-21T11:47:21;10.47;;;4.63;;
11964;SDS011;6042;41.326;19.826;2023-11-21T11:50:06;11.17;;;4.00;;
11964;SDS011;6042;41.326;19.826;2023-11-21T11:52:40;14.33;;;6.27;;
11964;SDS011;6042;41.326;19.826;2023-11-21T11:55:10;9.97;;;3.73;;
11964;SDS011;6042;41.326;19.826;2023-11-21T11:57:41;9.23;;;3.70;;
11964;SDS011;6042;41.326;19.826;2023-11-21T12:00:11;14.77;;;4.00;;
11964;SDS011;6042;41.326;19.826;2023-11-21T12:02:46;9.40;;;3.70;;
11964;SDS011;6042;41.326;19.826;2023-11-21T12:05:17;10.57;;;4.17;;
11964;SDS011;6042;41.326;19.826;2023-11-21T12:07:48;8.60;;;4.03;;
11964;SDS011;6042;41.326;19.826;2023-11-21T12:10:20;3.93;;;3.00;;
11964;SDS011;6042;41.326;19.826;2023-11-21T12:12:51;8.70;;;3.30;;
11964;SDS011;6042;41.326;19.826;2023-11-21T12:15:21;8.10;;;2.90;;
11964;SDS011;6042;41.326;19.826;2023-11-21T12:17:50;5.03;;;2.70;;
11964;SDS011;6042;41.326;19.826;2023-11-21T12:20:21;8.57;;;3.13;;
11964;SDS011;6042;41.326;19.826;2023-11-21T12:22:51;9.97;;;3.80;;
11964;SDS011;6042;41.326;19.826;2023-11-21T12:25:21;9.37;;;3.63;;
11964;SDS011;6042;41.326;19.826;2023-11-21T12:27:50;9.63;;;3.73;;
11964;SDS011;6042;41.326;19.826;2023-11-21T12:30:21;8.57;;;2.87;;
11964;SDS011;6042;41.326;19.826;2023-11-21T12:32:51;4.77;;;2.90;;
11964;SDS011;6042;41.326;19.826;2023-11-21T12:35:23;5.27;;;2.60;;
11964;SDS011;6042;41.326;19.826;2023-11-21T12:37:54;6.40;;;2.93;;
11964;SDS011;6042;41.326;19.826;2023-11-21T12:40:24;7.73;;;3.13;;
11964;SDS011;6042;41.326;19.826;2023-11-21T12:42:57;4.27;;;3.07;;
11964;SDS011;6042;41.326;19.826;2023-11-21T12:45:28;10.13;;;3.87;;
11964;SDS011;6042;41.326;19.826;2023-11-21T12:47:58;9.50;;;3.50;;
11964;SDS011;6042;41.326;19.826;2023-11-21T12:50:36;6.30;;;2.80;;
11964;SDS011;6042;41.326;19.826;2023-11-21T12:53:06;5.63;;;3.30;;
11964;SDS011;6042;41.326;19.826;2023-11-21T12:55:38;5.63;;;3.07;;
11964;SDS011;6042;41.326;19.826;2023-11-21T12:58:09;8.67;;;3.07;;
11964;SDS011;6042;41.326;19.826;2023-11-21T13:00:40;3.43;;;2.30;;
11964;SDS011;6042;41.326;19.826;2023-11-21T13:03:11;8.17;;;2.40;;
11964;SDS011;6042;41.326;19.826;2023-11-21T13:05:46;3.70;;;2.37;;
11964;SDS011;6042;41.326;19.826;2023-11-21T13:08:20;6.73;;;2.40;;
11964;SDS011;6042;41.326;19.826;2023-11-21T13:10:51;3.17;;;2.50;;
11964;SDS011;6042;41.326;19.826;2023-11-21T13:13:22;6.93;;;2.70;;
11964;SDS011;6042;41.326;19.826;2023-11-21T13:15:53;3.70;;;2.10;;
11964;SDS011;6042;41.326;19.826;2023-11-21T13:18:23;2.67;;;2.13;;
11964;SDS011;6042;41.326;19.826;2023-11-21T13:20:55;4.97;;;2.33;;
11964;SDS011;6042;41.326;19.826;2023-11-21T13:23:24;6.70;;;1.80;;
11964;SDS011;6042;41.326;19.826;2023-11-21T13:25:53;1.83;;;1.40;;
11964;SDS011;6042;41.326;19.826;2023-11-21T13:28:30;2.40;;;1.20;;
11964;SDS011;6042;41.326;19.826;2023-11-21T13:31:01;2.60;;;1.17;;
11964;SDS011;6042;41.326;19.826;2023-11-21T13:33:37;2.17;;;1.30;;
11964;SDS011;6042;41.326;19.826;2023-11-21T13:36:09;4.23;;;1.40;;
11964;SDS011;6042;41.326;19.826;2023-11-21T13:38:43;6.80;;;1.57;;
11964;SDS011;6042;41.326;19.826;2023-11-21T13:41:12;5.53;;;1.70;;
11964;SDS011;6042;41.326;19.826;2023-11-21T13:43:41;2.53;;;1.10;;
11964;SDS011;6042;41.326;19.826;2023-11-21T13:46:17;3.83;;;1.70;;
11964;SDS011;6042;41.326;19.826;2023-11-21T13:48:49;2.77;;;1.20;;
11964;SDS011;6042;41.326;19.826;2023-11-21T13:51:24;7.10;;;1.63;;
11964;SDS011;6042;41.326;19.826;2023-11-21T13:54:04;6.27;;;1.53;;
11964;SDS011;6042;41.326;19.826;2023-11-21T13:56:36;3.13;;;1.30;;
11964;SDS011;6042;41.326;19.826;2023-11-21T13:59:06;2.90;;;1.20;;
11964;SDS011;6042;41.326;19.826;2023-11-21T14:01:43;6.43;;;1.40;;
11964;SDS011;6042;41.326;19.826;2023-11-21T14:04:24;3.17;;;1.43;;
11964;SDS011;6042;41.326;19.826;2023-11-21T14:07:15;4.33;;;1.30;;
11964;SDS011;6042;41.326;19.826;2023-11-21T14:09:59;2.70;;;1.20;;
11964;SDS011;6042;41.326;19.826;2023-11-21T14:12:28;3.47;;;1.27;;
11964;SDS011;6042;41.326;19.826;2023-11-21T14:15:04;2.97;;;1.30;;
11964;SDS011;6042;41.326;19.826;2023-11-21T14:17:36;2.63;;;1.40;;
11964;SDS011;6042;41.326;19.826;2023-11-21T14:20:10;1.57;;;1.40;;
11964;SDS011;6042;41.326;19.826;2023-11-21T14:22:44;1.73;;;1.50;;
11964;SDS011;6042;41.326;19.826;2023-11-21T14:25:13;3.20;;;1.57;;
11964;SDS011;6042;41.326;19.826;2023-11-21T14:27:44;4.20;;;1.93;;
11964;SDS011;6042;41.326;19.826;2023-11-21T14:30:13;2.27;;;1.60;;
11964;SDS011;6042;41.326;19.826;2023-11-21T14:32:45;3.10;;;1.23;;
11964;SDS011;6042;41.326;19.826;2023-11-21T14:35:13;3.73;;;1.40;;
11964;SDS011;6042;41.326;19.826;2023-11-21T14:37:42;4.30;;;1.57;;
11964;SDS011;6042;41.326;19.826;2023-11-21T14:40:13;2.77;;;1.17;;
11964;SDS011;6042;41.326;19.826;2023-11-21T14:42:44;3.73;;;1.60;;
11964;SDS011;6042;41.326;19.826;2023-11-21T14:45:13;4.27;;;1.53;;
11964;SDS011;6042;41.326;19.826;2023-11-21T14:47:46;2.93;;;1.50;;
11964;SDS011;6042;41.326;19.826;2023-11-21T14:50:23;1.80;;;1.30;;
11964;SDS011;6042;41.326;19.826;2023-11-21T14:53:07;2.10;;;1.50;;
11964;SDS011;6042;41.326;19.826;2023-11-21T14:55:36;4.37;;;2.00;;
11964;SDS011;6042;41.326;19.826;2023-11-21T14:58:21;4.20;;;2.57;;
11964;SDS011;6042;41.326;19.826;2023-11-21T15:00:54;5.10;;;2.63;;
11964;SDS011;6042;41.326;19.826;2023-11-21T15:03:26;5.10;;;2.47;;
11964;SDS011;6042;41.326;19.826;2023-11-21T15:06:10;4.57;;;2.20;;